sensor_id;sensor_type;location;lat;lon;timestamp;P1;durP1;ratioP1;P2;durP2;ratioP2
6561;SDS011;3314;50.890;4.722;2024-02-28T00:01:47;20.4;;;9.3;;
6561;SDS011;3314;50.890;4.722;2024-02-28T00:03:35;20.2;;;9.2;;
6561;SDS011;3314;50.890;4.722;2024-02-28T00:05:35;25.8;;;11.3;;
6561;SDS011;3314;50.890;4.722;2024-02-28T00:07:35;22.9;;;10.7;;
6561;SDS011;3314;50.890;4.722;2024-02-28T00:09:34;21.4;;;9.6;;
6561;SDS011;3314;50.890;4.722;2024-02-28T00:11:41;25.7;;;11.4;;
6561;SDS011;3314;50.890;4.722;2024-02-28T00:13:46;26.3;;;10.6;;
6561;SDS011;3314;50.890;4.722;2024-02-28T00:15:36;23.8;;;10.0;;
6561;SDS011;3314;50.890;4.722;2024-02-28T00:17:37;24.7;;;10.7;;
6561;SDS011;3314;50.890;4.722;2024-02-28T00:19:38;25.0;;;11.0;;
6561;SDS011;3314;50.890;4.722;2024-02-28T00:21:38;23.1;;;11.7;;
6561;SDS011;3314;50.890;4.722;2024-02-28T00:23:37;26.1;;;11.6;;
6561;SDS011;3314;50.890;4.722;2024-02-28T00:25:38;26.3;;;11.4;;
6561;SDS011;3314;50.890;4.722;2024-02-28T00:27:42;24.2;;;10.5;;
6561;SDS011;3314;50.890;4.722;2024-02-28T00:29:32;25.9;;;10.3;;
6561;SDS011;3314;50.890;4.722;2024-02-28T00:31:37;26.5;;;10.3;;
6561;SDS011;3314;50.890;4.722;2024-02-28T00:33:41;21.6;;;9.4;;
6561;SDS011;3314;50.890;4.722;2024-02-28T00:37:30;23.1;;;10.6;;
6561;SDS011;3314;50.890;4.722;2024-02-28T00:39:33;23.4;;;10.8;;
6561;SDS011;3314;50.890;4.722;2024-02-28T00:41:37;24.8;;;10.8;;
6561;SDS011;3314;50.890;4.722;2024-02-28T00:43:37;22.5;;;10.8;;
6561;SDS011;3314;50.890;4.722;2024-02-28T00:45:38;26.6;;;11.8;;
6561;SDS011;3314;50.890;4.722;2024-02-28T00:47:26;24.5;;;9.8;;
6561;SDS011;3314;50.890;4.722;2024-02-28T00:49:26;24.9;;;10.4;;
6561;SDS011;3314;50.890;4.722;2024-02-28T00:51:28;22.7;;;9.1;;
6561;SDS011;3314;50.890;4.722;2024-02-28T00:53:32;21.9;;;10.7;;
6561;SDS011;3314;50.890;4.722;2024-02-28T00:55:31;22.9;;;9.4;;
6561;SDS011;3314;50.890;4.722;2024-02-28T00:57:32;25.3;;;11.0;;
6561;SDS011;3314;50.890;4.722;2024-02-28T00:59:34;26.0;;;10.9;;
6561;SDS011;3314;50.890;4.722;2024-02-28T01:01:23;24.3;;;10.8;;
6561;SDS011;3314;50.890;4.722;2024-02-28T01:03:27;25.3;;;9.5;;
6561;SDS011;3314;50.890;4.722;2024-02-28T01:05:32;24.5;;;10.6;;
6561;SDS011;3314;50.890;4.722;2024-02-28T01:07:26;26.8;;;11.1;;
6561;SDS011;3314;50.890;4.722;2024-02-28T01:09:31;24.2;;;10.5;;
6561;SDS011;3314;50.890;4.722;2024-02-28T01:11:35;24.1;;;10.1;;
6561;SDS011;3314;50.890;4.722;2024-02-28T01:13:27;21.7;;;9.7;;
6561;SDS011;3314;50.890;4.722;2024-02-28T01:15:28;24.5;;;9.7;;
6561;SDS011;3314;50.890;4.722;2024-02-28T01:17:28;22.9;;;10.0;;
6561;SDS011;3314;50.890;4.722;2024-02-28T01:19:28;26.5;;;10.3;;
6561;SDS011;3314;50.890;4.722;2024-02-28T01:21:33;22.0;;;9.7;;
6561;SDS011;3314;50.890;4.722;2024-02-28T01:23:23;26.3;;;10.3;;
6561;SDS011;3314;50.890;4.722;2024-02-28T01:25:22;24.2;;;10.5;;
6561;SDS011;3314;50.890;4.722;2024-02-28T01:27:22;23.9;;;9.5;;
6561;SDS011;3314;50.890;4.722;2024-02-28T01:29:22;25.7;;;10.5;;
6561;SDS011;3314;50.890;4.722;2024-02-28T01:31:22;22.5;;;10.4;;
6561;SDS011;3314;50.890;4.722;2024-02-28T01:33:22;22.9;;;10.2;;
6561;SDS011;3314;50.890;4.722;2024-02-28T01:35:22;23.9;;;9.5;;
6561;SDS011;3314;50.890;4.722;2024-02-28T01:37:23;28.5;;;11.8;;
6561;SDS011;3314;50.890;4.722;2024-02-28T01:39:25;24.5;;;10.7;;
6561;SDS011;3314;50.890;4.722;2024-02-28T01:41:16;23.6;;;10.1;;
6561;SDS011;3314;50.890;4.722;2024-02-28T01:43:16;25.9;;;11.2;;
6561;SDS011;3314;50.890;4.722;2024-02-28T01:45:21;23.5;;;10.6;;
6561;SDS011;3314;50.890;4.722;2024-02-28T01:47:24;24.8;;;10.6;;
6561;SDS011;3314;50.890;4.722;2024-02-28T01:49:17;24.9;;;11.0;;
6561;SDS011;3314;50.890;4.722;2024-02-28T01:51:22;28.2;;;10.5;;
6561;SDS011;3314;50.890;4.722;2024-02-28T01:53:14;29.8;;;12.9;;
6561;SDS011;3314;50.890;4.722;2024-02-28T01:55:18;27.9;;;11.7;;
6561;SDS011;3314;50.890;4.722;2024-02-28T01:57:23;27.1;;;12.3;;
6561;SDS011;3314;50.890;4.722;2024-02-28T01:59:15;31.6;;;13.6;;
6561;SDS011;3314;50.890;4.722;2024-02-28T02:01:20;29.4;;;12.5;;
6561;SDS011;3314;50.890;4.722;2024-02-28T02:03:12;29.0;;;12.8;;
6561;SDS011;3314;50.890;4.722;2024-02-28T02:05:32;28.2;;;12.0;;
6561;SDS011;3314;50.890;4.722;2024-02-28T02:07:13;31.4;;;12.3;;
6561;SDS011;3314;50.890;4.722;2024-02-28T02:09:18;33.2;;;13.4;;
6561;SDS011;3314;50.890;4.722;2024-02-28T02:11:22;28.0;;;12.4;;
6561;SDS011;3314;50.890;4.722;2024-02-28T02:13:15;31.0;;;13.7;;
6561;SDS011;3314;50.890;4.722;2024-02-28T02:15:19;30.2;;;13.0;;
6561;SDS011;3314;50.890;4.722;2024-02-28T02:17:08;29.5;;;13.0;;
6561;SDS011;3314;50.890;4.722;2024-02-28T02:19:08;26.4;;;11.8;;
6561;SDS011;3314;50.890;4.722;2024-02-28T02:21:09;26.0;;;12.0;;
6561;SDS011;3314;50.890;4.722;2024-02-28T02:23:15;33.4;;;12.7;;
6561;SDS011;3314;50.890;4.722;2024-02-28T02:25:09;28.9;;;12.1;;
6561;SDS011;3314;50.890;4.722;2024-02-28T02:27:09;27.4;;;12.6;;
6561;SDS011;3314;50.890;4.722;2024-02-28T02:29:10;32.9;;;13.6;;
6561;SDS011;3314;50.890;4.722;2024-02-28T02:31:11;28.3;;;12.6;;
6561;SDS011;3314;50.890;4.722;2024-02-28T02:33:10;33.6;;;13.3;;
6561;SDS011;3314;50.890;4.722;2024-02-28T02:35:11;30.1;;;13.1;;
6561;SDS011;3314;50.890;4.722;2024-02-28T02:37:11;30.0;;;13.1;;
6561;SDS011;3314;50.890;4.722;2024-02-28T02:39:16;26.4;;;12.8;;
6561;SDS011;3314;50.890;4.722;2024-02-28T02:41:08;32.0;;;11.7;;
6561;SDS011;3314;50.890;4.722;2024-02-28T02:43:13;30.9;;;13.8;;
6561;SDS011;3314;50.890;4.722;2024-02-28T02:45:05;34.5;;;14.4;;
6561;SDS011;3314;50.890;4.722;2024-02-28T02:47:06;30.3;;;12.8;;
6561;SDS011;3314;50.890;4.722;2024-02-28T02:49:05;30.0;;;13.8;;
6561;SDS011;3314;50.890;4.722;2024-02-28T02:51:06;28.7;;;13.2;;
6561;SDS011;3314;50.890;4.722;2024-02-28T02:53:06;29.5;;;13.9;;
6561;SDS011;3314;50.890;4.722;2024-02-28T02:55:06;30.3;;;13.9;;
6561;SDS011;3314;50.890;4.722;2024-02-28T02:57:07;28.7;;;12.6;;
6561;SDS011;3314;50.890;4.722;2024-02-28T02:58:58;29.7;;;13.0;;
6561;SDS011;3314;50.890;4.722;2024-02-28T03:00:58;30.5;;;13.2;;
6561;SDS011;3314;50.890;4.722;2024-02-28T03:03:00;34.6;;;13.0;;
6561;SDS011;3314;50.890;4.722;2024-02-28T03:05:05;24.9;;;11.2;;
6561;SDS011;3314;50.890;4.722;2024-02-28T03:07:09;27.3;;;11.5;;
6561;SDS011;3314;50.890;4.722;2024-02-28T03:09:04;28.7;;;11.5;;
6561;SDS011;3314;50.890;4.722;2024-02-28T03:11:07;29.3;;;12.2;;
6561;SDS011;3314;50.890;4.722;2024-02-28T03:12:55;25.8;;;11.8;;
6561;SDS011;3314;50.890;4.722;2024-02-28T03:14:56;28.7;;;12.9;;
6561;SDS011;3314;50.890;4.722;2024-02-28T03:16:57;30.3;;;12.5;;
6561;SDS011;3314;50.890;4.722;2024-02-28T03:19:01;27.9;;;11.7;;
6561;SDS011;3314;50.890;4.722;2024-02-28T03:21:03;22.6;;;11.0;;
6561;SDS011;3314;50.890;4.722;2024-02-28T03:22:51;33.2;;;12.2;;
6561;SDS011;3314;50.890;4.722;2024-02-28T03:24:51;25.0;;;10.8;;
6561;SDS011;3314;50.890;4.722;2024-02-28T03:26:51;28.5;;;11.9;;
6561;SDS011;3314;50.890;4.722;2024-02-28T03:28:51;29.1;;;12.4;;
6561;SDS011;3314;50.890;4.722;2024-02-28T03:30:53;30.3;;;12.2;;
6561;SDS011;3314;50.890;4.722;2024-02-28T03:32:53;35.1;;;14.1;;
6561;SDS011;3314;50.890;4.722;2024-02-28T03:34:53;32.8;;;13.7;;
6561;SDS011;3314;50.890;4.722;2024-02-28T03:36:53;32.8;;;14.1;;
6561;SDS011;3314;50.890;4.722;2024-02-28T03:38:53;30.8;;;14.0;;
6561;SDS011;3314;50.890;4.722;2024-02-28T03:40:53;28.4;;;13.4;;
6561;SDS011;3314;50.890;4.722;2024-02-28T03:42:59;33.6;;;13.9;;
6561;SDS011;3314;50.890;4.722;2024-02-28T03:44:50;34.5;;;14.2;;
6561;SDS011;3314;50.890;4.722;2024-02-28T03:46:50;32.3;;;14.1;;
6561;SDS011;3314;50.890;4.722;2024-02-28T03:48:50;30.2;;;13.6;;
6561;SDS011;3314;50.890;4.722;2024-02-28T03:50:51;29.9;;;13.3;;
6561;SDS011;3314;50.890;4.722;2024-02-28T03:52:50;32.7;;;13.3;;
6561;SDS011;3314;50.890;4.722;2024-02-28T03:54:50;30.2;;;12.5;;
6561;SDS011;3314;50.890;4.722;2024-02-28T03:56:50;29.3;;;13.0;;
6561;SDS011;3314;50.890;4.722;2024-02-28T03:58:49;35.2;;;14.3;;
6561;SDS011;3314;50.890;4.722;2024-02-28T04:00:49;31.9;;;12.5;;
6561;SDS011;3314;50.890;4.722;2024-02-28T04:02:49;28.0;;;12.0;;
6561;SDS011;3314;50.890;4.722;2024-02-28T04:04:48;32.6;;;13.4;;
6561;SDS011;3314;50.890;4.722;2024-02-28T04:06:48;27.4;;;11.9;;
6561;SDS011;3314;50.890;4.722;2024-02-28T04:08:48;31.5;;;13.4;;
6561;SDS011;3314;50.890;4.722;2024-02-28T04:10:47;29.1;;;12.2;;
6561;SDS011;3314;50.890;4.722;2024-02-28T04:12:47;29.5;;;12.8;;
6561;SDS011;3314;50.890;4.722;2024-02-28T04:14:47;30.8;;;12.4;;
6561;SDS011;3314;50.890;4.722;2024-02-28T04:16:47;29.0;;;12.6;;
6561;SDS011;3314;50.890;4.722;2024-02-28T04:18:47;30.8;;;13.4;;
6561;SDS011;3314;50.890;4.722;2024-02-28T04:20:47;29.0;;;13.3;;
6561;SDS011;3314;50.890;4.722;2024-02-28T04:22:46;31.5;;;13.7;;
6561;SDS011;3314;50.890;4.722;2024-02-28T04:24:46;35.3;;;14.3;;
6561;SDS011;3314;50.890;4.722;2024-02-28T04:26:46;30.8;;;13.9;;
6561;SDS011;3314;50.890;4.722;2024-02-28T04:28:45;31.9;;;14.0;;
6561;SDS011;3314;50.890;4.722;2024-02-28T04:30:45;29.0;;;12.8;;
6561;SDS011;3314;50.890;4.722;2024-02-28T04:32:45;32.6;;;13.9;;
6561;SDS011;3314;50.890;4.722;2024-02-28T04:34:44;34.6;;;13.8;;
6561;SDS011;3314;50.890;4.722;2024-02-28T04:36:44;30.4;;;13.4;;
6561;SDS011;3314;50.890;4.722;2024-02-28T04:38:44;30.3;;;13.6;;
6561;SDS011;3314;50.890;4.722;2024-02-28T04:40:43;27.7;;;12.1;;
6561;SDS011;3314;50.890;4.722;2024-02-28T04:42:43;33.8;;;14.6;;
6561;SDS011;3314;50.890;4.722;2024-02-28T04:44:33;33.6;;;14.8;;
6561;SDS011;3314;50.890;4.722;2024-02-28T04:46:33;32.5;;;14.3;;
6561;SDS011;3314;50.890;4.722;2024-02-28T04:48:34;31.0;;;13.8;;
6561;SDS011;3314;50.890;4.722;2024-02-28T04:50:34;30.6;;;14.4;;
6561;SDS011;3314;50.890;4.722;2024-02-28T04:52:33;32.0;;;13.4;;
6561;SDS011;3314;50.890;4.722;2024-02-28T04:54:33;31.2;;;13.2;;
6561;SDS011;3314;50.890;4.722;2024-02-28T04:56:33;31.0;;;13.6;;
6561;SDS011;3314;50.890;4.722;2024-02-28T04:58:33;30.5;;;13.0;;
6561;SDS011;3314;50.890;4.722;2024-02-28T05:00:32;26.5;;;12.4;;
6561;SDS011;3314;50.890;4.722;2024-02-28T05:02:32;31.1;;;14.0;;
6561;SDS011;3314;50.890;4.722;2024-02-28T05:04:32;24.0;;;10.5;;
6561;SDS011;3314;50.890;4.722;2024-02-28T05:06:31;27.4;;;11.9;;
6561;SDS011;3314;50.890;4.722;2024-02-28T05:08:31;31.4;;;12.8;;
6561;SDS011;3314;50.890;4.722;2024-02-28T05:10:32;27.7;;;12.1;;
6561;SDS011;3314;50.890;4.722;2024-02-28T05:12:31;27.4;;;12.1;;
6561;SDS011;3314;50.890;4.722;2024-02-28T05:14:31;27.8;;;12.3;;
6561;SDS011;3314;50.890;4.722;2024-02-28T05:16:31;27.2;;;11.6;;
6561;SDS011;3314;50.890;4.722;2024-02-28T05:18:30;27.7;;;10.6;;
6561;SDS011;3314;50.890;4.722;2024-02-28T05:20:30;30.0;;;11.9;;
6561;SDS011;3314;50.890;4.722;2024-02-28T05:22:30;26.1;;;11.4;;
6561;SDS011;3314;50.890;4.722;2024-02-28T05:24:29;31.4;;;13.0;;
6561;SDS011;3314;50.890;4.722;2024-02-28T05:26:31;27.6;;;12.3;;
6561;SDS011;3314;50.890;4.722;2024-02-28T05:28:31;24.4;;;11.2;;
6561;SDS011;3314;50.890;4.722;2024-02-28T05:30:31;27.6;;;11.6;;
6561;SDS011;3314;50.890;4.722;2024-02-28T05:32:31;28.3;;;12.1;;
6561;SDS011;3314;50.890;4.722;2024-02-28T05:34:30;30.6;;;12.5;;
6561;SDS011;3314;50.890;4.722;2024-02-28T05:36:30;28.3;;;11.8;;
6561;SDS011;3314;50.890;4.722;2024-02-28T05:38:30;29.2;;;12.4;;
6561;SDS011;3314;50.890;4.722;2024-02-28T05:40:30;28.5;;;12.1;;
6561;SDS011;3314;50.890;4.722;2024-02-28T05:42:29;30.2;;;12.7;;
6561;SDS011;3314;50.890;4.722;2024-02-28T05:44:30;28.3;;;12.6;;
6561;SDS011;3314;50.890;4.722;2024-02-28T05:46:19;30.2;;;12.6;;
6561;SDS011;3314;50.890;4.722;2024-02-28T05:48:21;29.8;;;13.1;;
6561;SDS011;3314;50.890;4.722;2024-02-28T05:50:21;26.2;;;12.4;;
6561;SDS011;3314;50.890;4.722;2024-02-28T05:52:21;30.4;;;12.9;;
6561;SDS011;3314;50.890;4.722;2024-02-28T05:54:21;31.9;;;12.4;;
6561;SDS011;3314;50.890;4.722;2024-02-28T05:56:21;25.9;;;11.9;;
6561;SDS011;3314;50.890;4.722;2024-02-28T05:58:21;29.9;;;12.3;;
6561;SDS011;3314;50.890;4.722;2024-02-28T06:00:23;28.3;;;12.6;;
6561;SDS011;3314;50.890;4.722;2024-02-28T06:02:23;27.6;;;12.0;;
6561;SDS011;3314;50.890;4.722;2024-02-28T06:04:22;29.3;;;12.9;;
6561;SDS011;3314;50.890;4.722;2024-02-28T06:06:22;27.7;;;12.6;;
6561;SDS011;3314;50.890;4.722;2024-02-28T06:08:22;30.8;;;12.3;;
6561;SDS011;3314;50.890;4.722;2024-02-28T06:10:22;29.6;;;12.7;;
6561;SDS011;3314;50.890;4.722;2024-02-28T06:12:21;28.5;;;12.6;;
6561;SDS011;3314;50.890;4.722;2024-02-28T06:14:21;30.0;;;13.5;;
6561;SDS011;3314;50.890;4.722;2024-02-28T06:16:21;28.3;;;13.1;;
6561;SDS011;3314;50.890;4.722;2024-02-28T06:18:23;31.2;;;13.3;;
6561;SDS011;3314;50.890;4.722;2024-02-28T06:20:11;30.4;;;12.9;;
6561;SDS011;3314;50.890;4.722;2024-02-28T06:22:11;31.0;;;12.5;;
6561;SDS011;3314;50.890;4.722;2024-02-28T06:24:11;27.6;;;12.5;;
6561;SDS011;3314;50.890;4.722;2024-02-28T06:26:16;31.6;;;13.4;;
6561;SDS011;3314;50.890;4.722;2024-02-28T06:28:16;31.3;;;13.4;;
6561;SDS011;3314;50.890;4.722;2024-02-28T06:30:17;28.7;;;11.7;;
6561;SDS011;3314;50.890;4.722;2024-02-28T06:32:17;30.9;;;13.2;;
6561;SDS011;3314;50.890;4.722;2024-02-28T06:34:16;27.9;;;11.8;;
6561;SDS011;3314;50.890;4.722;2024-02-28T06:36:16;25.5;;;11.8;;
6561;SDS011;3314;50.890;4.722;2024-02-28T06:38:16;29.7;;;12.1;;
6561;SDS011;3314;50.890;4.722;2024-02-28T06:40:15;29.6;;;12.4;;
6561;SDS011;3314;50.890;4.722;2024-02-28T06:42:16;27.0;;;12.3;;
6561;SDS011;3314;50.890;4.722;2024-02-28T06:44:08;29.6;;;11.9;;
6561;SDS011;3314;50.890;4.722;2024-02-28T06:46:07;29.1;;;11.7;;
6561;SDS011;3314;50.890;4.722;2024-02-28T06:48:07;29.2;;;11.8;;
6561;SDS011;3314;50.890;4.722;2024-02-28T06:50:07;30.6;;;13.0;;
6561;SDS011;3314;50.890;4.722;2024-02-28T06:52:07;32.0;;;13.5;;
6561;SDS011;3314;50.890;4.722;2024-02-28T06:54:06;28.2;;;13.2;;
6561;SDS011;3314;50.890;4.722;2024-02-28T06:56:07;28.6;;;11.2;;
6561;SDS011;3314;50.890;4.722;2024-02-28T06:58:06;30.2;;;12.7;;
6561;SDS011;3314;50.890;4.722;2024-02-28T07:00:09;31.3;;;13.1;;
6561;SDS011;3314;50.890;4.722;2024-02-28T07:02:09;32.9;;;12.1;;
6561;SDS011;3314;50.890;4.722;2024-02-28T07:04:09;32.5;;;12.9;;
6561;SDS011;3314;50.890;4.722;2024-02-28T07:06:09;28.6;;;13.4;;
6561;SDS011;3314;50.890;4.722;2024-02-28T07:08:11;29.9;;;13.1;;
6561;SDS011;3314;50.890;4.722;2024-02-28T07:09:59;30.1;;;14.1;;
6561;SDS011;3314;50.890;4.722;2024-02-28T07:11:59;35.1;;;13.8;;
6561;SDS011;3314;50.890;4.722;2024-02-28T07:14:02;36.5;;;14.5;;
6561;SDS011;3314;50.890;4.722;2024-02-28T07:16:02;30.4;;;13.3;;
6561;SDS011;3314;50.890;4.722;2024-02-28T07:18:02;28.8;;;13.6;;
6561;SDS011;3314;50.890;4.722;2024-02-28T07:20:01;37.0;;;14.9;;
6561;SDS011;3314;50.890;4.722;2024-02-28T07:22:01;31.9;;;13.0;;
6561;SDS011;3314;50.890;4.722;2024-02-28T07:24:01;34.0;;;14.2;;
6561;SDS011;3314;50.890;4.722;2024-02-28T07:26:00;35.8;;;13.3;;
6561;SDS011;3314;50.890;4.722;2024-02-28T07:28:00;35.0;;;14.2;;
6561;SDS011;3314;50.890;4.722;2024-02-28T07:30:01;30.7;;;12.9;;
6561;SDS011;3314;50.890;4.722;2024-02-28T07:32:03;32.9;;;13.9;;
6561;SDS011;3314;50.890;4.722;2024-02-28T07:34:02;31.9;;;12.8;;
6561;SDS011;3314;50.890;4.722;2024-02-28T07:36:03;32.5;;;14.1;;
6561;SDS011;3314;50.890;4.722;2024-02-28T07:38:03;33.7;;;13.5;;
6561;SDS011;3314;50.890;4.722;2024-02-28T07:40:03;33.0;;;14.9;;
6561;SDS011;3314;50.890;4.722;2024-02-28T07:41:52;34.6;;;12.4;;
6561;SDS011;3314;50.890;4.722;2024-02-28T07:43:52;31.5;;;13.5;;
6561;SDS011;3314;50.890;4.722;2024-02-28T07:45:52;33.7;;;13.9;;
6561;SDS011;3314;50.890;4.722;2024-02-28T07:47:52;35.6;;;13.5;;
6561;SDS011;3314;50.890;4.722;2024-02-28T07:49:52;29.8;;;12.9;;
6561;SDS011;3314;50.890;4.722;2024-02-28T07:51:51;34.2;;;13.4;;
6561;SDS011;3314;50.890;4.722;2024-02-28T07:53:51;37.7;;;13.7;;
6561;SDS011;3314;50.890;4.722;2024-02-28T07:55:51;32.8;;;13.1;;
6561;SDS011;3314;50.890;4.722;2024-02-28T07:57:51;38.5;;;13.5;;
6561;SDS011;3314;50.890;4.722;2024-02-28T07:59:51;33.6;;;14.1;;
6561;SDS011;3314;50.890;4.722;2024-02-28T08:01:51;30.4;;;13.1;;
6561;SDS011;3314;50.890;4.722;2024-02-28T08:03:50;33.2;;;14.7;;
6561;SDS011;3314;50.890;4.722;2024-02-28T08:05:50;31.5;;;13.4;;
6561;SDS011;3314;50.890;4.722;2024-02-28T08:07:50;34.6;;;14.2;;
6561;SDS011;3314;50.890;4.722;2024-02-28T08:09:49;42.4;;;15.1;;
6561;SDS011;3314;50.890;4.722;2024-02-28T08:11:49;31.6;;;13.7;;
6561;SDS011;3314;50.890;4.722;2024-02-28T08:13:49;36.7;;;14.2;;
6561;SDS011;3314;50.890;4.722;2024-02-28T08:15:48;38.9;;;14.3;;
6561;SDS011;3314;50.890;4.722;2024-02-28T08:17:48;30.5;;;13.1;;
6561;SDS011;3314;50.890;4.722;2024-02-28T08:19:48;32.5;;;13.9;;
6561;SDS011;3314;50.890;4.722;2024-02-28T08:21:47;31.1;;;13.2;;
6561;SDS011;3314;50.890;4.722;2024-02-28T08:23:48;44.2;;;14.0;;
6561;SDS011;3314;50.890;4.722;2024-02-28T08:25:48;38.3;;;13.4;;
6561;SDS011;3314;50.890;4.722;2024-02-28T08:27:48;34.2;;;13.3;;
6561;SDS011;3314;50.890;4.722;2024-02-28T08:29:48;34.6;;;13.3;;
6561;SDS011;3314;50.890;4.722;2024-02-28T08:31:48;36.8;;;14.1;;
6561;SDS011;3314;50.890;4.722;2024-02-28T08:33:48;33.4;;;12.7;;
6561;SDS011;3314;50.890;4.722;2024-02-28T08:35:50;34.2;;;13.3;;
6561;SDS011;3314;50.890;4.722;2024-02-28T08:37:50;36.0;;;12.9;;
6561;SDS011;3314;50.890;4.722;2024-02-28T08:39:49;41.0;;;14.2;;
6561;SDS011;3314;50.890;4.722;2024-02-28T08:41:49;32.4;;;13.8;;
6561;SDS011;3314;50.890;4.722;2024-02-28T08:43:39;33.4;;;12.9;;
6561;SDS011;3314;50.890;4.722;2024-02-28T08:45:38;34.8;;;13.7;;
6561;SDS011;3314;50.890;4.722;2024-02-28T08:47:38;36.2;;;13.4;;
6561;SDS011;3314;50.890;4.722;2024-02-28T08:49:38;32.8;;;13.2;;
6561;SDS011;3314;50.890;4.722;2024-02-28T08:51:38;34.6;;;12.9;;
6561;SDS011;3314;50.890;4.722;2024-02-28T08:53:38;29.2;;;12.4;;
6561;SDS011;3314;50.890;4.722;2024-02-28T08:55:37;31.3;;;13.3;;
6561;SDS011;3314;50.890;4.722;2024-02-28T08:57:37;31.9;;;12.0;;
6561;SDS011;3314;50.890;4.722;2024-02-28T08:59:37;31.6;;;12.0;;
6561;SDS011;3314;50.890;4.722;2024-02-28T09:01:37;35.4;;;13.3;;
6561;SDS011;3314;50.890;4.722;2024-02-28T09:03:36;34.6;;;12.6;;
6561;SDS011;3314;50.890;4.722;2024-02-28T09:05:36;33.3;;;12.3;;
6561;SDS011;3314;50.890;4.722;2024-02-28T09:07:36;25.8;;;11.3;;
6561;SDS011;3314;50.890;4.722;2024-02-28T09:09:41;33.2;;;12.4;;
6561;SDS011;3314;50.890;4.722;2024-02-28T09:11:41;26.5;;;10.0;;
6561;SDS011;3314;50.890;4.722;2024-02-28T09:13:40;31.9;;;12.3;;
6561;SDS011;3314;50.890;4.722;2024-02-28T09:15:40;32.1;;;12.7;;
6561;SDS011;3314;50.890;4.722;2024-02-28T09:17:40;34.7;;;11.7;;
6561;SDS011;3314;50.890;4.722;2024-02-28T09:19:40;30.4;;;11.0;;
6561;SDS011;3314;50.890;4.722;2024-02-28T09:21:39;28.8;;;11.0;;
6561;SDS011;3314;50.890;4.722;2024-02-28T09:23:39;33.0;;;12.0;;
6561;SDS011;3314;50.890;4.722;2024-02-28T09:25:38;30.6;;;12.5;;
6561;SDS011;3314;50.890;4.722;2024-02-28T09:27:38;34.4;;;11.4;;
6561;SDS011;3314;50.890;4.722;2024-02-28T09:29:38;28.3;;;10.4;;
6561;SDS011;3314;50.890;4.722;2024-02-28T09:31:38;32.4;;;11.2;;
6561;SDS011;3314;50.890;4.722;2024-02-28T09:33:37;27.9;;;11.0;;
6561;SDS011;3314;50.890;4.722;2024-02-28T09:35:37;31.8;;;11.4;;
6561;SDS011;3314;50.890;4.722;2024-02-28T09:37:37;24.1;;;10.8;;
6561;SDS011;3314;50.890;4.722;2024-02-28T09:39:37;31.4;;;11.6;;
6561;SDS011;3314;50.890;4.722;2024-02-28T09:41:28;29.5;;;10.8;;
6561;SDS011;3314;50.890;4.722;2024-02-28T09:43:29;27.8;;;11.9;;
6561;SDS011;3314;50.890;4.722;2024-02-28T09:45:31;32.2;;;10.3;;
6561;SDS011;3314;50.890;4.722;2024-02-28T09:47:30;29.2;;;10.3;;
6561;SDS011;3314;50.890;4.722;2024-02-28T09:49:31;28.6;;;10.5;;
6561;SDS011;3314;50.890;4.722;2024-02-28T09:51:32;35.4;;;11.6;;
6561;SDS011;3314;50.890;4.722;2024-02-28T09:53:32;25.9;;;10.3;;
6561;SDS011;3314;50.890;4.722;2024-02-28T09:55:32;26.3;;;11.0;;
6561;SDS011;3314;50.890;4.722;2024-02-28T09:57:32;33.0;;;11.8;;
6561;SDS011;3314;50.890;4.722;2024-02-28T09:59:32;28.6;;;9.4;;
6561;SDS011;3314;50.890;4.722;2024-02-28T10:01:22;23.2;;;10.0;;
6561;SDS011;3314;50.890;4.722;2024-02-28T10:03:23;28.6;;;10.9;;
6561;SDS011;3314;50.890;4.722;2024-02-28T10:05:27;26.6;;;10.2;;
6561;SDS011;3314;50.890;4.722;2024-02-28T10:07:27;27.9;;;11.0;;
6561;SDS011;3314;50.890;4.722;2024-02-28T10:09:27;26.2;;;10.7;;
6561;SDS011;3314;50.890;4.722;2024-02-28T10:11:27;28.3;;;10.7;;
6561;SDS011;3314;50.890;4.722;2024-02-28T10:13:26;29.1;;;10.2;;
6561;SDS011;3314;50.890;4.722;2024-02-28T10:15:28;26.4;;;9.4;;
6561;SDS011;3314;50.890;4.722;2024-02-28T10:17:28;35.6;;;11.6;;
6561;SDS011;3314;50.890;4.722;2024-02-28T10:19:28;31.3;;;11.8;;
6561;SDS011;3314;50.890;4.722;2024-02-28T10:21:29;28.1;;;10.3;;
6561;SDS011;3314;50.890;4.722;2024-02-28T10:23:18;29.1;;;9.3;;
6561;SDS011;3314;50.890;4.722;2024-02-28T10:25:18;29.7;;;10.9;;
6561;SDS011;3314;50.890;4.722;2024-02-28T10:27:19;28.4;;;9.4;;
6561;SDS011;3314;50.890;4.722;2024-02-28T10:29:19;23.4;;;8.7;;
6561;SDS011;3314;50.890;4.722;2024-02-28T10:31:21;28.2;;;9.9;;
6561;SDS011;3314;50.890;4.722;2024-02-28T10:33:21;23.7;;;8.2;;
6561;SDS011;3314;50.890;4.722;2024-02-28T10:35:20;26.6;;;9.7;;
6561;SDS011;3314;50.890;4.722;2024-02-28T10:37:20;28.1;;;10.2;;
6561;SDS011;3314;50.890;4.722;2024-02-28T10:39:20;26.1;;;8.7;;
6561;SDS011;3314;50.890;4.722;2024-02-28T10:41:21;26.1;;;9.7;;
6561;SDS011;3314;50.890;4.722;2024-02-28T10:43:21;21.1;;;8.5;;
6561;SDS011;3314;50.890;4.722;2024-02-28T10:45:26;24.7;;;10.0;;
6561;SDS011;3314;50.890;4.722;2024-02-28T10:47:14;25.5;;;9.3;;
6561;SDS011;3314;50.890;4.722;2024-02-28T10:49:15;18.7;;;8.0;;
6561;SDS011;3314;50.890;4.722;2024-02-28T10:51:14;22.9;;;8.2;;
6561;SDS011;3314;50.890;4.722;2024-02-28T10:53:15;23.1;;;9.1;;
6561;SDS011;3314;50.890;4.722;2024-02-28T10:55:17;23.1;;;8.9;;
6561;SDS011;3314;50.890;4.722;2024-02-28T10:57:19;20.8;;;7.6;;
6561;SDS011;3314;50.890;4.722;2024-02-28T10:59:19;21.1;;;7.8;;
6561;SDS011;3314;50.890;4.722;2024-02-28T11:01:11;20.0;;;7.9;;
6561;SDS011;3314;50.890;4.722;2024-02-28T11:03:11;25.4;;;7.0;;
6561;SDS011;3314;50.890;4.722;2024-02-28T11:05:11;19.9;;;8.0;;
6561;SDS011;3314;50.890;4.722;2024-02-28T11:07:11;20.5;;;7.8;;
6561;SDS011;3314;50.890;4.722;2024-02-28T11:09:12;21.5;;;7.9;;
6561;SDS011;3314;50.890;4.722;2024-02-28T11:11:13;22.9;;;7.3;;
6561;SDS011;3314;50.890;4.722;2024-02-28T11:13:21;16.3;;;7.1;;
6561;SDS011;3314;50.890;4.722;2024-02-28T11:15:15;18.2;;;7.5;;
6561;SDS011;3314;50.890;4.722;2024-02-28T11:17:16;20.4;;;7.1;;
6561;SDS011;3314;50.890;4.722;2024-02-28T11:19:19;15.2;;;6.7;;
6561;SDS011;3314;50.890;4.722;2024-02-28T11:21:15;23.2;;;7.4;;
6561;SDS011;3314;50.890;4.722;2024-02-28T11:23:15;22.5;;;7.8;;
6561;SDS011;3314;50.890;4.722;2024-02-28T11:25:06;16.9;;;6.8;;
6561;SDS011;3314;50.890;4.722;2024-02-28T11:27:06;19.4;;;7.4;;
6561;SDS011;3314;50.890;4.722;2024-02-28T11:29:07;20.7;;;7.7;;
6561;SDS011;3314;50.890;4.722;2024-02-28T11:31:07;24.0;;;7.5;;
6561;SDS011;3314;50.890;4.722;2024-02-28T11:33:09;18.1;;;7.5;;
6561;SDS011;3314;50.890;4.722;2024-02-28T11:35:09;17.5;;;7.4;;
6561;SDS011;3314;50.890;4.722;2024-02-28T11:37:09;21.5;;;6.9;;
6561;SDS011;3314;50.890;4.722;2024-02-28T11:39:08;19.3;;;6.2;;
6561;SDS011;3314;50.890;4.722;2024-02-28T11:41:08;17.6;;;6.7;;
6561;SDS011;3314;50.890;4.722;2024-02-28T11:43:08;19.9;;;7.6;;
6561;SDS011;3314;50.890;4.722;2024-02-28T11:45:09;17.8;;;7.6;;
6561;SDS011;3314;50.890;4.722;2024-02-28T11:47:10;22.0;;;7.6;;
6561;SDS011;3314;50.890;4.722;2024-02-28T11:49:09;18.2;;;7.5;;
6561;SDS011;3314;50.890;4.722;2024-02-28T11:51:09;20.6;;;7.0;;
6561;SDS011;3314;50.890;4.722;2024-02-28T11:53:09;21.9;;;7.8;;
6561;SDS011;3314;50.890;4.722;2024-02-28T11:55:09;21.0;;;7.9;;
6561;SDS011;3314;50.890;4.722;2024-02-28T11:57:08;20.5;;;8.2;;
6561;SDS011;3314;50.890;4.722;2024-02-28T11:58:59;24.7;;;8.3;;
6561;SDS011;3314;50.890;4.722;2024-02-28T12:01:03;19.2;;;7.3;;
6561;SDS011;3314;50.890;4.722;2024-02-28T12:03:04;20.9;;;7.1;;
6561;SDS011;3314;50.890;4.722;2024-02-28T12:05:05;20.5;;;8.5;;
6561;SDS011;3314;50.890;4.722;2024-02-28T12:07:05;20.1;;;7.2;;
6561;SDS011;3314;50.890;4.722;2024-02-28T12:09:06;17.6;;;7.7;;
6561;SDS011;3314;50.890;4.722;2024-02-28T12:11:06;19.7;;;7.6;;
6561;SDS011;3314;50.890;4.722;2024-02-28T12:13:08;18.5;;;7.8;;
6561;SDS011;3314;50.890;4.722;2024-02-28T12:14:58;26.1;;;8.4;;
6561;SDS011;3314;50.890;4.722;2024-02-28T12:16:58;21.5;;;8.3;;
6561;SDS011;3314;50.890;4.722;2024-02-28T12:18:57;19.1;;;8.2;;
6561;SDS011;3314;50.890;4.722;2024-02-28T12:20:57;19.8;;;8.5;;
6561;SDS011;3314;50.890;4.722;2024-02-28T12:22:57;17.7;;;7.5;;
6561;SDS011;3314;50.890;4.722;2024-02-28T12:24:57;21.8;;;7.7;;
6561;SDS011;3314;50.890;4.722;2024-02-28T12:26:57;17.0;;;6.9;;